createdAt,value
2018-11-23T00:00:45.536Z,24.60
2018-11-23T00:06:01.811Z,24.97
2018-11-23T00:10:58.193Z,24.03
2018-11-23T00:16:14.145Z,26.10
2018-11-23T00:21:10.509Z,25.13
2018-11-23T00:26:06.914Z,26.03
2018-11-23T00:31:03.653Z,25.03
2018-11-23T00:36:00.018Z,26.30
2018-11-23T00:40:56.373Z,24.97
2018-11-23T00:45:52.784Z,25.73
2018-11-23T00:50:49.196Z,26.40
2018-11-23T00:55:45.581Z,25.77
2018-11-23T01:00:42.160Z,26.40
2018-11-23T01:05:38.568Z,26.57
2018-11-23T01:10:34.926Z,26.10
2018-11-23T01:15:31.371Z,27.10
2018-11-23T01:20:28.147Z,25.93
2018-11-23T01:25:25.479Z,26.70
2018-11-23T01:30:26.327Z,28.00
2018-11-23T01:35:22.757Z,27.37
2018-11-23T01:40:23.137Z,26.47
2018-11-23T01:45:19.861Z,26.43
2018-11-23T01:50:26.731Z,26.77
2018-11-23T01:55:23.648Z,26.67
2018-11-23T02:00:21.211Z,25.17
2018-11-23T02:05:17.605Z,26.23
2018-11-23T02:10:15.124Z,25.30
2018-11-23T02:15:12.620Z,26.37
2018-11-23T02:20:09.462Z,26.80
2018-11-23T02:25:06.014Z,26.87
2018-11-23T02:30:02.450Z,26.23
2018-11-23T02:34:58.929Z,27.67
2018-11-23T02:39:55.629Z,26.53
2018-11-23T02:44:52.030Z,27.67
2018-11-23T02:49:48.435Z,28.57
2018-11-23T02:54:44.822Z,26.57
2018-11-23T02:59:41.241Z,27.23
2018-11-23T03:04:37.598Z,26.87
2018-11-23T03:09:34.336Z,27.53
2018-11-23T03:14:30.769Z,25.80
2018-11-23T03:19:27.173Z,26.17
2018-11-23T03:24:23.571Z,26.10
2018-11-23T03:29:20.301Z,26.97
2018-11-23T03:34:16.740Z,26.03
2018-11-23T03:39:13.590Z,27.63
2018-11-23T03:44:09.975Z,26.43
2018-11-23T03:49:06.677Z,26.43
2018-11-23T03:54:03.109Z,27.00
2018-11-23T03:58:59.425Z,26.93
2018-11-23T04:03:55.797Z,26.60
2018-11-23T04:08:52.251Z,26.37
2018-11-23T04:13:48.623Z,26.63
2018-11-23T04:18:44.990Z,27.30
2018-11-23T04:23:41.389Z,27.50
2018-11-23T04:28:38.130Z,25.50
2018-11-23T04:33:34.530Z,25.43
2018-11-23T04:38:30.937Z,25.97
2018-11-23T04:43:27.309Z,25.43
2018-11-23T04:48:23.708Z,22.10
2018-11-23T04:53:20.095Z,25.80
2018-11-23T04:58:16.544Z,25.93
2018-11-23T05:03:13.096Z,25.83
2018-11-23T05:08:09.911Z,25.10
2018-11-23T05:13:06.376Z,24.77
2018-11-23T05:18:02.809Z,24.77
2018-11-23T05:22:59.199Z,24.37
2018-11-23T05:27:55.597Z,25.03
2018-11-23T05:32:51.933Z,24.63
2018-11-23T05:37:48.320Z,24.07
2018-11-23T05:42:45.100Z,24.03
2018-11-23T05:47:41.496Z,24.23
2018-11-23T05:52:37.877Z,25.70
2018-11-23T05:57:34.965Z,25.73
2018-11-23T06:02:31.368Z,23.37
2018-11-23T06:07:27.813Z,22.43
2018-11-23T06:12:24.217Z,21.93
2018-11-23T06:17:20.753Z,23.00
2018-11-23T06:22:17.675Z,22.77
2018-11-23T06:27:14.822Z,24.13
2018-11-23T06:32:30.757Z,23.80
2018-11-23T06:37:27.403Z,23.03
2018-11-23T06:42:23.797Z,25.47
2018-11-23T06:47:20.252Z,25.37
2018-11-23T06:52:16.681Z,23.83
2018-11-23T06:57:13.089Z,25.93
2018-11-23T07:02:09.578Z,25.37
2018-11-23T07:07:05.981Z,24.90
2018-11-23T07:12:02.395Z,25.47
2018-11-23T07:16:59.080Z,26.80
2018-11-23T07:21:55.748Z,26.20
2018-11-23T07:26:52.534Z,25.93
2018-11-23T07:31:48.960Z,25.43
2018-11-23T07:36:45.348Z,26.50
2018-11-23T07:42:01.678Z,27.17
2018-11-23T07:46:58.314Z,27.77
2018-11-23T07:51:54.673Z,29.10
2018-11-23T07:56:51.100Z,27.80
2018-11-23T08:01:47.924Z,28.77
2018-11-23T08:06:44.289Z,28.37
2018-11-23T08:11:40.620Z,27.47
2018-11-23T08:16:37.336Z,28.63
2018-11-23T08:21:34.026Z,30.17
2018-11-23T08:26:30.408Z,30.20
2018-11-23T08:31:26.920Z,29.50
2018-11-23T08:36:23.343Z,29.23
2018-11-23T08:41:19.788Z,29.83
2018-11-23T08:46:16.206Z,29.97
2018-11-23T08:51:13.036Z,29.37
2018-11-23T08:56:09.407Z,29.30
2018-11-23T09:01:05.786Z,27.60
2018-11-23T09:06:22.045Z,27.83
2018-11-23T09:11:18.442Z,26.90
2018-11-23T09:16:14.876Z,26.50
2018-11-23T09:21:11.260Z,26.80
2018-11-23T09:26:07.708Z,26.13
2018-11-23T09:31:04.063Z,24.17
2018-11-23T09:36:00.553Z,25.47
2018-11-23T09:40:56.922Z,24.50
2018-11-23T09:45:53.374Z,27.43
2018-11-23T09:50:49.774Z,25.23
2018-11-23T09:55:46.180Z,25.50
2018-11-23T10:00:42.483Z,21.63
2018-11-23T10:05:38.904Z,23.83
2018-11-23T10:10:35.393Z,25.07
2018-11-23T10:15:32.305Z,24.60
2018-11-23T10:20:30.051Z,23.53
2018-11-23T10:25:45.981Z,23.33
2018-11-23T10:31:01.913Z,23.30
2018-11-23T10:35:58.464Z,22.90
2018-11-23T10:40:54.686Z,22.80
2018-11-23T10:45:51.105Z,22.03
2018-11-23T10:50:47.458Z,22.23
2018-11-23T10:55:44.545Z,22.93
2018-11-23T11:01:00.454Z,23.23
2018-11-23T11:06:16.386Z,22.77
2018-11-23T11:11:13.865Z,23.43
2018-11-23T11:16:09.158Z,24.10
2018-11-23T11:21:05.504Z,23.47
2018-11-23T11:26:01.867Z,20.77
2018-11-23T11:30:58.329Z,23.03
2018-11-23T11:35:54.710Z,21.20
2018-11-23T11:40:51.099Z,23.37
2018-11-23T11:45:47.600Z,22.53
2018-11-23T11:50:43.981Z,20.97
2018-11-23T11:55:40.393Z,19.13
2018-11-23T12:00:36.762Z,19.93
2018-11-23T12:05:33.194Z,18.60
2018-11-23T12:10:29.498Z,19.70
2018-11-23T12:15:25.835Z,19.10
2018-11-23T12:20:23.451Z,18.90
2018-11-23T12:25:20.472Z,19.33
2018-11-23T12:30:18.317Z,19.90
2018-11-23T12:35:15.469Z,19.90
2018-11-23T12:40:13.158Z,20.20
2018-11-23T12:45:11.284Z,18.90
2018-11-23T12:50:27.617Z,20.37
2018-11-23T12:55:24.101Z,19.60
2018-11-23T13:00:40.027Z,22.30
2018-11-23T13:05:36.412Z,22.60
2018-11-23T13:10:32.778Z,21.67
2018-11-23T13:15:29.145Z,20.53
2018-11-23T13:20:25.605Z,20.87
2018-11-23T13:25:23.437Z,35.40
2018-11-23T13:30:39.395Z,25.80
2018-11-23T13:35:35.849Z,20.80
2018-11-23T13:40:32.236Z,23.60
2018-11-23T13:45:32.574Z,21.90
2018-11-23T13:50:29.457Z,21.77
2018-11-23T13:55:26.300Z,21.20
2018-11-23T14:00:24.202Z,19.43
2018-11-23T14:05:21.906Z,20.40
2018-11-23T14:10:19.974Z,19.87
2018-11-23T14:15:20.702Z,20.63
2018-11-23T14:20:17.805Z,20.97
2018-11-23T14:25:15.457Z,21.50
2018-11-23T14:30:13.559Z,20.70
2018-11-23T14:35:11.889Z,22.00
2018-11-23T14:40:09.370Z,21.57
2018-11-23T14:45:26.673Z,21.93
2018-11-23T14:50:24.757Z,21.43
2018-11-23T14:55:21.470Z,20.83
2018-11-23T15:00:40.761Z,21.73
2018-11-23T15:05:37.712Z,20.03
2018-11-23T15:10:34.808Z,18.97
2018-11-23T15:15:32.612Z,22.17
2018-11-23T15:20:48.553Z,20.77
2018-11-23T15:25:44.965Z,22.53
2018-11-23T15:30:42.297Z,20.73
2018-11-23T15:35:39.628Z,21.70
2018-11-23T15:40:36.021Z,20.60
2018-11-23T15:45:33.249Z,19.80
2018-11-23T15:50:31.015Z,19.50
2018-11-23T15:55:28.700Z,21.30
2018-11-23T16:00:44.613Z,21.27
2018-11-23T16:06:22.543Z,21.17
2018-11-23T16:11:19.285Z,21.07
2018-11-23T16:16:16.084Z,22.57
2018-11-23T16:21:12.786Z,21.33
2018-11-23T16:26:09.541Z,21.67
2018-11-23T16:31:06.253Z,21.73
2018-11-23T16:36:09.052Z,22.90
2018-11-23T16:41:05.794Z,20.53
2018-11-23T16:46:02.525Z,24.23
2018-11-23T16:50:59.256Z,29.87
2018-11-23T16:55:55.863Z,24.03
2018-11-23T17:00:52.512Z,19.73
2018-11-23T17:05:51.454Z,20.63
2018-11-23T17:10:48.143Z,20.43
2018-11-23T17:15:44.823Z,19.67
2018-11-23T17:20:41.630Z,22.93
2018-11-23T17:25:38.372Z,21.07
2018-11-23T17:30:35.686Z,20.27
2018-11-23T17:35:32.365Z,18.73
2018-11-23T17:40:30.708Z,19.80
2018-11-23T17:45:29.093Z,20.03
2018-11-23T17:50:28.956Z,21.27
2018-11-23T17:55:25.636Z,19.70
2018-11-23T18:00:23.769Z,20.07
2018-11-23T18:05:21.474Z,21.40
2018-11-23T18:10:22.553Z,20.77
2018-11-23T18:15:20.959Z,20.90
2018-11-23T18:20:18.807Z,20.03
2018-11-23T18:25:16.904Z,19.63
2018-11-23T18:30:13.611Z,19.93
2018-11-23T18:35:11.056Z,20.13
2018-11-23T18:40:08.593Z,20.70
2018-11-23T18:45:13.076Z,19.57
2018-11-23T18:50:10.392Z,21.10
2018-11-23T18:55:07.537Z,20.40
2018-11-23T19:00:05.741Z,21.17
2018-11-23T19:05:02.387Z,19.30
2018-11-23T19:09:59.231Z,21.20
2018-11-23T19:14:55.894Z,19.77
2018-11-23T19:19:52.577Z,20.47
2018-11-23T19:24:49.272Z,21.40
2018-11-23T19:29:45.911Z,20.13
2018-11-23T19:34:42.727Z,21.17
2018-11-23T19:39:39.508Z,19.13
2018-11-23T19:44:36.174Z,21.60
2018-11-23T19:49:32.921Z,28.77
2018-11-23T19:54:29.646Z,38.67
2018-11-23T19:59:26.438Z,30.03
2018-11-23T20:04:23.100Z,24.03
2018-11-23T20:09:19.814Z,23.80
2018-11-23T20:14:16.536Z,23.17
2018-11-23T20:19:13.213Z,22.67
2018-11-23T20:24:09.917Z,22.27
2018-11-23T20:29:06.578Z,20.17
2018-11-23T20:34:03.302Z,23.47
2018-11-23T20:38:59.997Z,23.80
2018-11-23T20:43:56.680Z,24.70
2018-11-23T20:48:53.376Z,21.87
2018-11-23T20:53:50.089Z,22.17
2018-11-23T20:58:46.765Z,24.57
2018-11-23T21:03:43.519Z,23.23
2018-11-23T21:08:40.195Z,23.53
2018-11-23T21:13:36.937Z,22.37
2018-11-23T21:18:33.596Z,23.27
2018-11-23T21:23:30.348Z,23.70
2018-11-23T21:28:27.209Z,22.17
2018-11-23T21:33:23.931Z,23.57
2018-11-23T21:38:20.595Z,25.00
2018-11-23T21:43:17.250Z,28.70
2018-11-23T21:48:14.383Z,30.70
2018-11-23T21:53:11.123Z,28.63
2018-11-23T21:58:07.806Z,37.87
2018-11-23T22:03:04.488Z,25.70
2018-11-23T22:08:01.264Z,25.80
2018-11-23T22:12:57.935Z,26.10
2018-11-23T22:17:55.156Z,25.17
2018-11-23T22:22:51.915Z,26.30
2018-11-23T22:27:48.710Z,26.07
2018-11-23T22:32:45.428Z,25.67
2018-11-23T22:37:42.199Z,26.27
2018-11-23T22:42:38.996Z,25.60
2018-11-23T22:47:35.774Z,24.17
2018-11-23T22:52:32.424Z,23.57
2018-11-23T22:57:29.079Z,25.10
2018-11-23T23:02:25.771Z,24.23
2018-11-23T23:07:22.441Z,23.90
2018-11-23T23:12:19.099Z,22.60
2018-11-23T23:17:15.784Z,23.67
2018-11-23T23:22:12.580Z,22.40
2018-11-23T23:27:09.261Z,22.50
2018-11-23T23:32:05.939Z,23.37
2018-11-23T23:37:02.570Z,23.20
2018-11-23T23:41:59.212Z,22.97
2018-11-23T23:46:55.941Z,21.53
2018-11-23T23:51:52.574Z,20.73
2018-11-23T23:56:49.253Z,21.17
